createdAt,value
2023-01-09T00:01:47.119Z,88.24
2023-01-09T00:04:15.662Z,88.27
2023-01-09T00:06:43.634Z,88.64
2023-01-09T00:09:12.867Z,88.87
2023-01-09T00:11:40.733Z,89.31
2023-01-09T00:14:10.918Z,89.14
2023-01-09T00:16:38.876Z,89.29
2023-01-09T00:19:06.716Z,89.41
2023-01-09T00:21:35.223Z,89.61
2023-01-09T00:24:03.107Z,89.73
2023-01-09T00:26:32.549Z,89.90
2023-01-09T00:29:00.307Z,90.80
2023-01-09T00:31:28.300Z,90.79
2023-01-09T00:34:00.414Z,90.67
2023-01-09T00:36:31.433Z,90.81
2023-01-09T00:38:59.876Z,90.66
2023-01-09T00:41:31.322Z,90.59
2023-01-09T00:44:10.666Z,90.72
2023-01-09T00:46:41.828Z,90.49
2023-01-09T00:49:11.058Z,90.54
2023-01-09T00:51:41.217Z,90.69
2023-01-09T00:54:12.792Z,90.33
2023-01-09T00:56:40.966Z,90.13
2023-01-09T00:59:10.623Z,90.21
2023-01-09T01:01:38.508Z,90.80
2023-01-09T01:04:20.232Z,90.16
2023-01-09T01:07:05.636Z,89.68
2023-01-09T01:09:33.382Z,89.31
2023-01-09T01:12:06.986Z,89.98
2023-01-09T01:14:36.870Z,89.44
2023-01-09T01:17:05.753Z,89.50
2023-01-09T01:19:34.909Z,89.42
2023-01-09T01:22:03.532Z,89.26
2023-01-09T01:24:31.834Z,89.60
2023-01-09T01:26:59.615Z,89.42
2023-01-09T01:29:27.528Z,89.31
2023-01-09T01:31:56.708Z,88.47
2023-01-09T01:34:24.618Z,88.06
2023-01-09T01:36:52.507Z,88.35
2023-01-09T01:39:20.298Z,88.16
2023-01-09T01:41:48.222Z,89.22
2023-01-09T01:44:53.518Z,89.02
2023-01-09T01:47:24.967Z,88.76
2023-01-09T01:49:53.749Z,89.07
2023-01-09T01:52:22.416Z,89.78
2023-01-09T01:54:50.427Z,89.03
2023-01-09T01:57:18.568Z,88.92
2023-01-09T01:59:51.058Z,89.03
2023-01-09T02:02:21.586Z,89.11
2023-01-09T02:04:53.307Z,89.94
2023-01-09T02:07:21.117Z,89.43
2023-01-09T02:09:49.882Z,89.23
2023-01-09T02:12:20.011Z,89.42
2023-01-09T02:14:49.310Z,89.01
2023-01-09T02:17:29.815Z,88.48
2023-01-09T02:20:34.368Z,88.88
2023-01-09T02:23:26.659Z,89.06
2023-01-09T02:26:19.475Z,88.99
2023-01-09T02:29:11.406Z,90.08
2023-01-09T02:31:48.295Z,89.23
2023-01-09T02:34:24.477Z,89.73
2023-01-09T02:37:02.189Z,89.10
2023-01-09T02:39:38.737Z,88.88
2023-01-09T02:42:13.964Z,88.90
2023-01-09T02:44:43.806Z,89.28
2023-01-09T02:47:38.463Z,88.29
2023-01-09T02:50:10.607Z,88.58
2023-01-09T02:52:53.476Z,88.22
2023-01-09T02:55:36.204Z,88.95
2023-01-09T02:58:11.237Z,88.24
2023-01-09T03:00:51.548Z,88.47
2023-01-09T03:03:25.239Z,88.67
2023-01-09T03:06:01.828Z,88.27
2023-01-09T03:08:36.216Z,87.96
2023-01-09T03:11:07.606Z,87.73
2023-01-09T03:13:40.997Z,88.33
2023-01-09T03:16:12.876Z,87.93
2023-01-09T03:18:43.503Z,88.39
2023-01-09T03:21:12.859Z,87.03
2023-01-09T03:23:48.955Z,86.96
2023-01-09T03:26:16.824Z,87.54
2023-01-09T03:28:45.475Z,87.00
2023-01-09T03:31:14.120Z,86.43
2023-01-09T03:33:43.915Z,87.08
2023-01-09T03:36:14.592Z,86.24
2023-01-09T03:38:45.558Z,86.21
2023-01-09T03:41:13.635Z,85.77
2023-01-09T03:43:41.670Z,85.58
2023-01-09T03:46:09.580Z,85.75
2023-01-09T03:48:37.331Z,85.73
2023-01-09T03:51:06.715Z,85.31
2023-01-09T03:53:34.727Z,84.81
2023-01-09T03:56:02.684Z,84.77
2023-01-09T03:58:30.520Z,83.90
2023-01-09T04:01:00.020Z,83.86
2023-01-09T04:03:27.983Z,83.33
2023-01-09T04:05:56.063Z,83.09
2023-01-09T04:08:25.211Z,83.80
2023-01-09T04:10:53.181Z,83.05
2023-01-09T04:13:21.261Z,83.27
2023-01-09T04:15:49.410Z,83.44
2023-01-09T04:18:17.711Z,83.13
2023-01-09T04:20:48.383Z,83.56
2023-01-09T04:23:16.362Z,83.40
2023-01-09T04:25:47.613Z,83.45
2023-01-09T04:28:15.461Z,84.06
2023-01-09T04:30:45.409Z,83.57
2023-01-09T04:33:13.153Z,82.91
2023-01-09T04:35:40.890Z,83.33
2023-01-09T04:38:08.661Z,83.12
2023-01-09T04:40:36.484Z,83.28
2023-01-09T04:43:05.603Z,83.25
2023-01-09T04:45:33.465Z,83.66
2023-01-09T04:48:01.251Z,83.14
2023-01-09T04:50:31.020Z,83.13
2023-01-09T04:52:59.658Z,83.80
2023-01-09T04:55:27.571Z,83.61
2023-01-09T04:57:55.273Z,83.86
2023-01-09T05:00:24.848Z,83.66
2023-01-09T05:02:52.735Z,83.89
2023-01-09T05:05:20.781Z,84.98
2023-01-09T05:07:48.598Z,84.35
2023-01-09T05:10:16.692Z,84.03
2023-01-09T05:12:44.460Z,84.66
2023-01-09T05:15:12.982Z,84.24
2023-01-09T05:17:42.193Z,84.51
2023-01-09T05:20:10.925Z,84.54
2023-01-09T05:22:38.628Z,84.37
2023-01-09T05:25:07.380Z,83.53
2023-01-09T05:27:35.203Z,83.96
2023-01-09T05:30:04.840Z,84.00
2023-01-09T05:32:32.735Z,84.27
2023-01-09T05:35:01.877Z,84.32
2023-01-09T05:37:30.715Z,84.55
2023-01-09T05:39:58.453Z,84.64
2023-01-09T05:42:26.747Z,84.67
2023-01-09T05:44:54.482Z,84.18
2023-01-09T05:47:22.336Z,83.40
2023-01-09T05:49:50.253Z,83.64
2023-01-09T05:52:19.411Z,83.43
2023-01-09T05:54:47.147Z,83.52
2023-01-09T05:57:14.970Z,83.81
2023-01-09T05:59:42.822Z,83.39
2023-01-09T06:02:10.800Z,83.12
2023-01-09T06:04:38.787Z,83.51
2023-01-09T06:07:06.689Z,84.24
2023-01-09T06:09:36.188Z,83.69
2023-01-09T06:12:04.160Z,83.74
2023-01-09T06:14:32.011Z,83.31
2023-01-09T06:17:00.267Z,83.63
2023-01-09T06:19:28.178Z,83.11
2023-01-09T06:21:55.928Z,82.84
2023-01-09T06:24:23.812Z,81.80
2023-01-09T06:26:52.905Z,81.91
2023-01-09T06:29:21.001Z,81.61
2023-01-09T06:31:48.815Z,81.42
2023-01-09T06:34:16.608Z,80.33
2023-01-09T06:36:44.384Z,80.14
2023-01-09T06:39:14.038Z,79.73
2023-01-09T06:41:41.846Z,79.09
2023-01-09T06:44:12.176Z,78.56
2023-01-09T06:46:43.007Z,78.46
2023-01-09T06:49:11.118Z,77.69
2023-01-09T06:51:39.063Z,76.74
2023-01-09T06:54:06.915Z,75.55
2023-01-09T06:56:34.743Z,75.56
2023-01-09T06:59:02.514Z,75.65
2023-01-09T07:01:31.714Z,75.21
2023-01-09T07:03:59.688Z,75.45
2023-01-09T07:06:27.997Z,75.58
2023-01-09T07:08:55.859Z,75.99
2023-01-09T07:11:23.703Z,75.16
2023-01-09T07:13:51.504Z,75.13
2023-01-09T07:16:19.359Z,75.24
2023-01-09T07:18:48.517Z,75.37
2023-01-09T07:21:16.675Z,74.92
2023-01-09T07:23:44.785Z,75.40
2023-01-09T07:26:12.550Z,74.92
2023-01-09T07:28:40.373Z,74.91
2023-01-09T07:31:08.402Z,74.11
2023-01-09T07:33:36.579Z,74.29
2023-01-09T07:36:07.492Z,74.52
2023-01-09T07:38:37.410Z,73.85
2023-01-09T07:41:05.449Z,72.98
2023-01-09T07:43:33.355Z,73.83
2023-01-09T07:46:03.480Z,74.61
2023-01-09T07:48:31.419Z,73.77
2023-01-09T07:50:59.238Z,74.77
2023-01-09T07:53:28.423Z,74.58
2023-01-09T07:55:56.245Z,74.89
2023-01-09T07:58:24.209Z,73.73
2023-01-09T08:00:52.177Z,74.76
2023-01-09T08:03:20.116Z,74.53
2023-01-09T08:05:49.779Z,74.94
2023-01-09T08:08:19.126Z,75.09
2023-01-09T08:10:48.318Z,75.20
2023-01-09T08:13:16.152Z,76.20
2023-01-09T08:15:44.009Z,75.96
2023-01-09T08:18:11.814Z,76.57
2023-01-09T08:20:39.689Z,75.67
2023-01-09T08:23:07.431Z,75.75
2023-01-09T08:25:35.196Z,76.06
2023-01-09T08:28:04.387Z,76.22
2023-01-09T08:30:32.238Z,76.06
2023-01-09T08:33:00.162Z,75.74
2023-01-09T08:35:27.956Z,76.48
2023-01-09T08:37:55.760Z,76.09
2023-01-09T08:40:23.762Z,77.04
2023-01-09T08:43:17.422Z,77.11
2023-01-09T08:46:04.291Z,77.44
2023-01-09T08:48:32.269Z,76.92
2023-01-09T08:51:00.065Z,76.68
2023-01-09T08:53:28.450Z,76.47
2023-01-09T08:55:56.330Z,76.88
2023-01-09T08:58:24.311Z,76.11
2023-01-09T09:00:53.551Z,76.37
2023-01-09T09:03:21.703Z,76.88
2023-01-09T09:05:49.530Z,75.98
2023-01-09T09:08:17.468Z,75.24
2023-01-09T09:10:45.595Z,75.99
2023-01-09T09:13:13.640Z,76.16
2023-01-09T09:15:41.484Z,76.19
2023-01-09T09:18:10.962Z,76.11
2023-01-09T09:20:40.041Z,75.87
2023-01-09T09:23:08.799Z,75.04
2023-01-09T09:25:38.288Z,74.69
2023-01-09T09:28:06.915Z,74.80
2023-01-09T09:30:35.062Z,74.75
2023-01-09T09:33:04.557Z,74.00
2023-01-09T09:35:34.895Z,74.06
2023-01-09T09:38:05.554Z,73.68
2023-01-09T09:41:05.632Z,74.92
2023-01-09T09:44:11.391Z,74.83
2023-01-09T09:46:45.887Z,76.25
2023-01-09T09:49:19.448Z,76.23
2023-01-09T09:52:09.397Z,76.14
2023-01-09T09:54:42.247Z,77.31
2023-01-09T09:57:16.665Z,77.89
2023-01-09T09:59:48.219Z,78.98
2023-01-09T10:02:27.055Z,79.69
2023-01-09T10:05:01.429Z,80.05
2023-01-09T10:07:38.871Z,79.10
2023-01-09T10:10:15.741Z,79.61
2023-01-09T10:12:52.477Z,79.89
2023-01-09T10:15:27.877Z,79.34
2023-01-09T10:18:08.978Z,79.09
2023-01-09T10:20:55.313Z,79.20
2023-01-09T10:23:44.312Z,79.68
2023-01-09T10:26:17.826Z,80.03
2023-01-09T10:29:05.785Z,79.79
2023-01-09T10:31:45.177Z,79.48
2023-01-09T10:34:24.843Z,79.91
2023-01-09T10:37:03.055Z,80.01
2023-01-09T10:39:38.331Z,80.66
2023-01-09T10:42:12.899Z,80.78
2023-01-09T10:44:49.013Z,80.90
2023-01-09T10:47:22.964Z,80.92
2023-01-09T10:49:53.122Z,80.83
2023-01-09T10:52:34.981Z,80.24
2023-01-09T10:55:16.788Z,80.83
2023-01-09T10:57:46.710Z,80.50
2023-01-09T11:00:18.669Z,81.26
2023-01-09T11:02:46.582Z,80.65
2023-01-09T11:05:18.759Z,81.07
2023-01-09T11:07:50.935Z,81.58
2023-01-09T11:10:22.972Z,81.51
2023-01-09T11:12:51.019Z,80.25
2023-01-09T11:15:29.036Z,79.40
2023-01-09T11:18:18.993Z,78.49
2023-01-09T11:20:46.944Z,77.16
2023-01-09T11:23:32.886Z,76.97
2023-01-09T11:26:03.917Z,76.93
2023-01-09T11:28:31.873Z,76.03
2023-01-09T11:31:01.398Z,75.61
2023-01-09T11:33:31.455Z,74.48
2023-01-09T11:36:05.072Z,73.52
2023-01-09T11:38:45.576Z,74.44
2023-01-09T11:41:19.918Z,74.07
2023-01-09T11:43:49.953Z,73.45
2023-01-09T11:46:39.493Z,71.82
2023-01-09T11:49:23.297Z,72.01
2023-01-09T11:52:14.781Z,73.11
2023-01-09T11:54:46.805Z,72.17
2023-01-09T11:57:16.725Z,71.37
2023-01-09T11:59:44.838Z,72.53
2023-01-09T12:02:53.571Z,70.75
2023-01-09T12:05:36.835Z,71.75
2023-01-09T12:08:24.251Z,71.78
2023-01-09T12:11:18.723Z,71.74
2023-01-09T12:13:59.610Z,73.12
2023-01-09T12:16:35.962Z,72.24
2023-01-09T12:19:17.271Z,72.29
2023-01-09T12:21:52.473Z,71.67
2023-01-09T12:24:40.804Z,72.09
2023-01-09T12:27:25.208Z,71.64
2023-01-09T12:30:19.363Z,72.03
2023-01-09T12:33:05.999Z,72.71
2023-01-09T12:35:41.346Z,74.53
2023-01-09T12:38:37.960Z,73.32
2023-01-09T12:41:35.763Z,74.04
2023-01-09T12:44:30.766Z,75.06
2023-01-09T12:47:20.032Z,74.75
2023-01-09T12:49:56.045Z,75.21
2023-01-09T12:52:27.286Z,75.74
2023-01-09T12:55:00.911Z,75.67
2023-01-09T12:57:33.761Z,73.59
2023-01-09T13:00:05.797Z,74.64
2023-01-09T13:02:41.973Z,74.88
2023-01-09T13:05:17.422Z,74.62
2023-01-09T13:07:50.973Z,74.70
2023-01-09T13:10:24.321Z,73.96
2023-01-09T13:12:54.791Z,74.48
2023-01-09T13:15:31.745Z,73.97
2023-01-09T13:18:08.495Z,73.08
2023-01-09T13:20:43.303Z,75.33
2023-01-09T13:23:18.902Z,75.64
2023-01-09T13:25:49.679Z,74.50
2023-01-09T13:28:21.943Z,75.13
2023-01-09T13:31:03.181Z,74.68
2023-01-09T13:33:35.997Z,75.11
2023-01-09T13:36:04.936Z,74.18
2023-01-09T13:38:35.208Z,75.05
2023-01-09T13:41:32.471Z,74.29
2023-01-09T13:44:03.820Z,73.57
2023-01-09T13:46:38.346Z,73.40
2023-01-09T13:49:08.814Z,73.38
2023-01-09T13:51:59.884Z,72.50
2023-01-09T13:55:00.828Z,72.93
2023-01-09T13:57:31.759Z,71.70
2023-01-09T14:00:37.969Z,72.38
2023-01-09T14:03:16.947Z,71.64
2023-01-09T14:06:13.122Z,70.33
2023-01-09T14:08:43.100Z,70.64
2023-01-09T14:11:19.827Z,70.29
2023-01-09T14:13:53.259Z,70.44
2023-01-09T14:16:24.720Z,70.53
2023-01-09T14:18:57.425Z,69.65
2023-01-09T14:21:27.252Z,71.05
2023-01-09T14:24:04.390Z,71.01
2023-01-09T14:26:45.871Z,70.64
2023-01-09T14:29:40.045Z,70.39
2023-01-09T14:32:43.305Z,71.95
2023-01-09T14:35:19.034Z,71.53
2023-01-09T14:37:59.432Z,71.39
2023-01-09T14:40:27.403Z,72.36
2023-01-09T14:43:00.585Z,72.28
2023-01-09T14:45:29.204Z,71.58
2023-01-09T14:48:01.690Z,71.94
2023-01-09T14:50:34.432Z,72.00
2023-01-09T14:53:06.757Z,72.03
2023-01-09T14:55:44.480Z,72.01
2023-01-09T14:58:13.716Z,71.91
2023-01-09T15:00:50.100Z,71.77
2023-01-09T15:03:18.438Z,72.27
2023-01-09T15:05:48.008Z,71.86
2023-01-09T15:08:21.706Z,72.34
2023-01-09T15:10:52.043Z,71.61
2023-01-09T15:13:29.195Z,71.73
2023-01-09T15:15:57.175Z,71.73
2023-01-09T15:18:27.245Z,71.18
2023-01-09T15:20:59.356Z,70.95
2023-01-09T15:23:30.346Z,70.60
2023-01-09T15:26:12.740Z,71.31
2023-01-09T15:28:43.705Z,70.41
2023-01-09T15:31:16.365Z,70.99
2023-01-09T15:33:46.803Z,71.14
2023-01-09T15:36:18.547Z,71.20
2023-01-09T15:38:49.487Z,71.29
2023-01-09T15:41:40.596Z,71.23
2023-01-09T15:44:15.363Z,71.02
2023-01-09T15:46:46.321Z,71.25
2023-01-09T15:49:15.376Z,72.51
2023-01-09T15:51:45.454Z,73.52
2023-01-09T15:54:18.185Z,74.66
2023-01-09T15:56:46.957Z,73.56
2023-01-09T15:59:25.090Z,73.42
2023-01-09T16:02:19.633Z,73.16
2023-01-09T16:04:48.535Z,73.08
2023-01-09T16:07:19.657Z,73.40
2023-01-09T16:09:52.666Z,72.80
2023-01-09T16:12:23.708Z,73.28
2023-01-09T16:14:53.793Z,72.90
2023-01-09T16:17:26.392Z,73.07
2023-01-09T16:19:58.099Z,73.05
2023-01-09T16:22:28.330Z,72.37
2023-01-09T16:24:59.494Z,72.97
2023-01-09T16:27:30.275Z,72.79
2023-01-09T16:29:59.546Z,72.44
2023-01-09T16:32:30.509Z,73.06
2023-01-09T16:35:00.493Z,72.15
2023-01-09T16:37:29.091Z,72.56
2023-01-09T16:40:26.887Z,72.67
2023-01-09T16:43:05.419Z,72.45
2023-01-09T16:45:36.253Z,72.46
2023-01-09T16:48:11.278Z,72.37
2023-01-09T16:50:40.234Z,72.49
2023-01-09T16:53:15.393Z,72.10
2023-01-09T16:55:44.940Z,72.12
2023-01-09T16:58:18.411Z,72.98
2023-01-09T17:00:48.144Z,72.86
2023-01-09T17:03:17.096Z,74.22
2023-01-09T17:05:45.401Z,75.57
2023-01-09T17:08:21.849Z,74.95
2023-01-09T17:10:51.646Z,75.19
2023-01-09T17:13:19.569Z,75.50
2023-01-09T17:15:47.800Z,75.90
2023-01-09T17:18:16.644Z,76.03
2023-01-09T17:20:47.325Z,76.38
2023-01-09T17:23:15.885Z,76.58
2023-01-09T17:26:02.042Z,77.41
2023-01-09T17:28:34.604Z,77.30
2023-01-09T17:31:05.861Z,77.15
2023-01-09T17:33:34.638Z,78.16
2023-01-09T17:36:03.981Z,77.15
2023-01-09T17:38:31.821Z,77.91
2023-01-09T17:40:59.755Z,78.02
2023-01-09T17:43:27.570Z,77.87
2023-01-09T17:45:57.154Z,77.57
2023-01-09T17:48:25.256Z,78.29
2023-01-09T17:50:53.184Z,78.09
2023-01-09T17:53:22.719Z,78.51
2023-01-09T17:55:50.706Z,78.30
2023-01-09T17:58:25.882Z,78.04
2023-01-09T18:00:53.965Z,77.91
2023-01-09T18:03:25.849Z,78.62
2023-01-09T18:05:53.926Z,78.13
2023-01-09T18:08:21.752Z,77.90
2023-01-09T18:10:50.569Z,78.70
2023-01-09T18:13:18.719Z,78.02
2023-01-09T18:15:47.691Z,78.11
2023-01-09T18:18:16.192Z,77.91
2023-01-09T18:20:47.788Z,77.40
2023-01-09T18:23:16.938Z,76.76
2023-01-09T18:25:45.291Z,76.58
2023-01-09T18:28:15.440Z,76.77
2023-01-09T18:30:45.426Z,75.83
2023-01-09T18:33:14.039Z,75.61
2023-01-09T18:35:42.223Z,75.36
2023-01-09T18:38:12.211Z,75.28
2023-01-09T18:40:41.592Z,74.03
2023-01-09T18:43:11.339Z,73.84
2023-01-09T18:45:39.926Z,73.84
2023-01-09T18:48:09.506Z,73.25
2023-01-09T18:50:37.374Z,73.32
2023-01-09T18:53:06.240Z,73.31
2023-01-09T18:55:37.473Z,73.86
2023-01-09T18:58:06.255Z,73.88
2023-01-09T19:00:34.904Z,74.42
2023-01-09T19:03:02.750Z,74.47
2023-01-09T19:05:33.052Z,74.03
2023-01-09T19:08:00.860Z,74.98
2023-01-09T19:10:28.661Z,74.16
2023-01-09T19:12:59.026Z,74.24
2023-01-09T19:15:29.149Z,74.49
2023-01-09T19:17:58.364Z,73.73
2023-01-09T19:20:26.290Z,74.88
2023-01-09T19:22:56.634Z,74.74
2023-01-09T19:25:24.552Z,74.52
2023-01-09T19:27:53.400Z,74.95
2023-01-09T19:30:22.851Z,73.92
2023-01-09T19:32:50.705Z,73.73
2023-01-09T19:35:18.556Z,74.60
2023-01-09T19:37:46.371Z,74.44
2023-01-09T19:40:14.706Z,74.73
2023-01-09T19:42:42.536Z,74.27
2023-01-09T19:45:11.115Z,74.54
2023-01-09T19:47:40.334Z,74.78
2023-01-09T19:50:09.323Z,75.13
2023-01-09T19:52:37.518Z,74.53
2023-01-09T19:55:06.025Z,74.71
2023-01-09T19:57:33.788Z,73.93
2023-01-09T20:00:01.574Z,73.28
2023-01-09T20:02:29.564Z,73.43
2023-01-09T20:04:58.671Z,72.65
2023-01-09T20:07:26.595Z,72.02
2023-01-09T20:09:54.431Z,72.51
2023-01-09T20:12:22.369Z,71.58
2023-01-09T20:14:50.292Z,71.59
2023-01-09T20:17:19.639Z,71.73
2023-01-09T20:19:47.645Z,72.19
2023-01-09T20:22:16.768Z,72.21
2023-01-09T20:24:44.585Z,72.77
2023-01-09T20:27:12.373Z,73.17
2023-01-09T20:29:40.240Z,72.54
2023-01-09T20:32:09.811Z,72.55
2023-01-09T20:34:37.689Z,72.96
2023-01-09T20:37:05.646Z,73.84
2023-01-09T20:39:34.908Z,73.64
2023-01-09T20:42:02.759Z,74.62
2023-01-09T20:44:30.835Z,74.71
2023-01-09T20:46:58.999Z,74.58
2023-01-09T20:49:26.816Z,75.50
2023-01-09T20:51:54.632Z,75.21
2023-01-09T20:54:23.188Z,75.17
2023-01-09T20:56:53.507Z,75.75
2023-01-09T20:59:22.074Z,75.74
2023-01-09T21:01:50.489Z,75.32
2023-01-09T21:04:21.135Z,75.59
2023-01-09T21:06:50.203Z,76.06
2023-01-09T21:09:18.876Z,75.84
2023-01-09T21:11:46.819Z,75.61
2023-01-09T21:14:16.084Z,75.94
2023-01-09T21:16:47.924Z,75.83
2023-01-09T21:19:21.659Z,76.15
2023-01-09T21:21:51.605Z,75.73
2023-01-09T21:24:20.827Z,76.02
2023-01-09T21:26:48.638Z,76.06
2023-01-09T21:29:17.846Z,76.28
2023-01-09T21:31:45.814Z,75.78
2023-01-09T21:34:14.832Z,76.32
2023-01-09T21:36:44.792Z,76.15
2023-01-09T21:39:12.648Z,75.54
2023-01-09T21:41:57.989Z,76.07
2023-01-09T21:44:45.082Z,75.68
2023-01-09T21:47:14.027Z,76.13
2023-01-09T21:49:43.687Z,76.24
2023-01-09T21:52:12.833Z,75.95
2023-01-09T21:54:41.505Z,75.88
2023-01-09T21:57:09.425Z,75.47
2023-01-09T21:59:38.845Z,75.58
2023-01-09T22:02:06.909Z,75.83
2023-01-09T22:04:34.687Z,76.06
2023-01-09T22:07:02.626Z,76.56
2023-01-09T22:09:30.452Z,77.56
2023-01-09T22:11:58.553Z,77.61
2023-01-09T22:14:29.593Z,77.90
2023-01-09T22:16:58.961Z,78.47
2023-01-09T22:19:29.394Z,78.28
2023-01-09T22:21:57.575Z,78.15
2023-01-09T22:24:25.660Z,77.84
2023-01-09T22:26:56.132Z,78.68
2023-01-09T22:29:24.803Z,78.65
2023-01-09T22:31:53.325Z,78.92
2023-01-09T22:34:22.706Z,78.98
2023-01-09T22:36:50.574Z,79.89
2023-01-09T22:39:21.112Z,79.35
2023-01-09T22:41:52.392Z,79.53
2023-01-09T22:44:20.697Z,78.98
2023-01-09T22:46:48.618Z,78.96
2023-01-09T22:49:16.981Z,79.29
2023-01-09T22:51:46.509Z,80.12
2023-01-09T22:54:14.451Z,79.65
2023-01-09T22:56:42.489Z,79.30
2023-01-09T22:59:10.431Z,79.89
2023-01-09T23:01:38.661Z,79.62
2023-01-09T23:04:06.962Z,79.24
2023-01-09T23:06:35.005Z,79.74
2023-01-09T23:09:04.461Z,79.04
2023-01-09T23:11:50.182Z,78.55
2023-01-09T23:14:19.112Z,79.14
2023-01-09T23:16:47.177Z,79.55
2023-01-09T23:19:15.680Z,79.85
2023-01-09T23:21:44.605Z,79.45
2023-01-09T23:24:19.163Z,79.12
2023-01-09T23:26:47.640Z,79.15
2023-01-09T23:29:16.036Z,78.88
2023-01-09T23:31:43.998Z,79.04
2023-01-09T23:34:15.554Z,78.75
2023-01-09T23:36:43.567Z,78.62
2023-01-09T23:39:12.121Z,78.64
2023-01-09T23:41:59.789Z,78.60
2023-01-09T23:44:27.754Z,79.52
2023-01-09T23:46:55.652Z,79.86
2023-01-09T23:49:24.543Z,79.50
2023-01-09T23:51:55.294Z,80.71
2023-01-09T23:54:23.090Z,80.04
2023-01-09T23:56:53.445Z,80.48
2023-01-09T23:59:21.367Z,80.87
